sensor_id;sensor_type;location;lat;lon;timestamp;pressure;altitude;pressure_sealevel;temperature;humidity
34241;BME280;20503;50.200;19.508;2023-03-14T00:01:23;100173.01;;;11.21;61.29
34241;BME280;20503;50.200;19.508;2023-03-14T00:06:30;100174.50;;;11.17;61.44
34241;BME280;20503;50.200;19.508;2023-03-14T00:11:37;100169.47;;;10.96;61.95
34241;BME280;20503;50.200;19.508;2023-03-14T00:16:48;100135.34;;;10.99;61.85
34241;BME280;20503;50.200;19.508;2023-03-14T00:21:52;100119.26;;;11.02;61.80
34241;BME280;20503;50.200;19.508;2023-03-14T00:26:59;100120.43;;;11.13;61.20
34241;BME280;20503;50.200;19.508;2023-03-14T00:32:07;100100.73;;;11.04;61.77
34241;BME280;20503;50.200;19.508;2023-03-14T00:37:14;100091.65;;;10.86;62.62
34241;BME280;20503;50.200;19.508;2023-03-14T00:42:22;100071.00;;;10.47;64.15
34241;BME280;20503;50.200;19.508;2023-03-14T00:47:29;100032.81;;;10.34;64.82
34241;BME280;20503;50.200;19.508;2023-03-14T00:52:36;100007.85;;;10.49;63.95
34241;BME280;20503;50.200;19.508;2023-03-14T00:57:44;100004.87;;;10.50;63.96
34241;BME280;20503;50.200;19.508;2023-03-14T01:02:51;99994.05;;;10.37;64.61
34241;BME280;20503;50.200;19.508;2023-03-14T01:07:59;99984.92;;;10.07;65.77
34241;BME280;20503;50.200;19.508;2023-03-14T01:13:06;99959.41;;;10.13;65.67
34241;BME280;20503;50.200;19.508;2023-03-14T01:18:13;99950.26;;;10.01;65.93
34241;BME280;20503;50.200;19.508;2023-03-14T01:23:21;99960.14;;;10.02;66.10
34241;BME280;20503;50.200;19.508;2023-03-14T01:28:28;99946.13;;;9.92;66.59
34241;BME280;20503;50.200;19.508;2023-03-14T01:33:36;99959.41;;;10.13;65.74
34241;BME280;20503;50.200;19.508;2023-03-14T01:38:44;99939.88;;;10.28;65.18
34241;BME280;20503;50.200;19.508;2023-03-14T01:43:51;99926.66;;;10.25;65.23
34241;BME280;20503;50.200;19.508;2023-03-14T01:49:14;99912.53;;;10.28;64.93
34241;BME280;20503;50.200;19.508;2023-03-14T01:54:20;99884.84;;;10.24;64.59
34241;BME280;20503;50.200;19.508;2023-03-14T01:59:25;99874.65;;;10.61;63.84
34241;BME280;20503;50.200;19.508;2023-03-14T02:04:30;99870.88;;;10.44;64.39
34241;BME280;20503;50.200;19.508;2023-03-14T02:09:37;99842.27;;;10.28;64.89
34241;BME280;20503;50.200;19.508;2023-03-14T02:14:39;99823.26;;;10.33;64.83
34241;BME280;20503;50.200;19.508;2023-03-14T02:30:23;99825.94;;;10.22;65.43
34241;BME280;20503;50.200;19.508;2023-03-14T02:40:41;99833.38;;;9.97;66.51
34241;BME280;20503;50.200;19.508;2023-03-14T02:45:44;99831.38;;;9.68;68.30
34241;BME280;20503;50.200;19.508;2023-03-14T02:50:48;99807.67;;;9.20;71.04
34241;BME280;20503;50.200;19.508;2023-03-14T02:55:50;99799.21;;;8.79;72.64
34241;BME280;20503;50.200;19.508;2023-03-14T03:00:52;99791.54;;;9.18;71.27
34241;BME280;20503;50.200;19.508;2023-03-14T03:05:54;99812.07;;;8.96;72.68
34241;BME280;20503;50.200;19.508;2023-03-14T03:10:57;99819.02;;;8.68;74.46
34241;BME280;20503;50.200;19.508;2023-03-14T03:16:05;99812.59;;;8.12;77.44
34241;BME280;20503;50.200;19.508;2023-03-14T03:21:12;99819.89;;;7.61;79.44
34241;BME280;20503;50.200;19.508;2023-03-14T03:26:20;99838.99;;;7.29;81.99
34241;BME280;20503;50.200;19.508;2023-03-14T03:31:28;99842.13;;;7.45;81.40
34241;BME280;20503;50.200;19.508;2023-03-14T03:36:35;99831.87;;;7.34;82.94
34241;BME280;20503;50.200;19.508;2023-03-14T03:41:43;99844.66;;;7.08;85.67
34241;BME280;20503;50.200;19.508;2023-03-14T03:46:50;99862.86;;;6.88;88.29
34241;BME280;20503;50.200;19.508;2023-03-14T03:51:59;99850.27;;;6.74;91.36
34241;BME280;20503;50.200;19.508;2023-03-14T03:57:06;99847.56;;;6.74;91.88
34241;BME280;20503;50.200;19.508;2023-03-14T04:02:14;99850.21;;;6.48;97.52
34241;BME280;20503;50.200;19.508;2023-03-14T04:07:21;99863.47;;;6.83;94.70
34241;BME280;20503;50.200;19.508;2023-03-14T04:12:29;99883.95;;;6.73;97.90
34241;BME280;20503;50.200;19.508;2023-03-14T04:17:37;99881.43;;;6.71;95.41
34241;BME280;20503;50.200;19.508;2023-03-14T04:22:44;99896.77;;;7.31;88.65
34241;BME280;20503;50.200;19.508;2023-03-14T04:27:55;99890.51;;;7.49;87.20
34241;BME280;20503;50.200;19.508;2023-03-14T04:33:00;99892.37;;;7.30;88.51
34241;BME280;20503;50.200;19.508;2023-03-14T04:38:07;99892.99;;;7.38;88.08
34241;BME280;20503;50.200;19.508;2023-03-14T04:43:15;99878.14;;;7.53;85.49
34241;BME280;20503;50.200;19.508;2023-03-14T04:48:24;99873.95;;;7.38;87.18
34241;BME280;20503;50.200;19.508;2023-03-14T04:53:31;99853.88;;;7.26;87.22
34241;BME280;20503;50.200;19.508;2023-03-14T04:58:38;99869.98;;;7.28;87.55
34241;BME280;20503;50.200;19.508;2023-03-14T05:03:46;99852.16;;;7.38;87.69
34241;BME280;20503;50.200;19.508;2023-03-14T05:08:54;99842.56;;;7.23;88.76
34241;BME280;20503;50.200;19.508;2023-03-14T05:14:02;99839.61;;;7.24;88.49
34241;BME280;20503;50.200;19.508;2023-03-14T05:19:11;99830.36;;;7.64;85.95
34241;BME280;20503;50.200;19.508;2023-03-14T05:24:17;99814.02;;;7.57;86.67
34241;BME280;20503;50.200;19.508;2023-03-14T05:29:26;99799.09;;;7.73;86.07
34241;BME280;20503;50.200;19.508;2023-03-14T05:34:33;99796.73;;;7.96;84.24
34241;BME280;20503;50.200;19.508;2023-03-14T05:39:41;99781.68;;;7.80;87.17
34241;BME280;20503;50.200;19.508;2023-03-14T05:44:49;99778.37;;;7.72;86.79
34241;BME280;20503;50.200;19.508;2023-03-14T05:49:56;99784.45;;;8.24;85.15
34241;BME280;20503;50.200;19.508;2023-03-14T05:55:05;99780.98;;;8.97;78.46
34241;BME280;20503;50.200;19.508;2023-03-14T06:00:13;99783.86;;;9.09;78.44
34241;BME280;20503;50.200;19.508;2023-03-14T06:05:20;99770.36;;;9.14;78.96
34241;BME280;20503;50.200;19.508;2023-03-14T06:10:27;99763.74;;;9.45;76.84
34241;BME280;20503;50.200;19.508;2023-03-14T06:15:35;99752.67;;;9.76;76.34
34241;BME280;20503;50.200;19.508;2023-03-14T06:20:42;99759.48;;;9.85;75.17
34241;BME280;20503;50.200;19.508;2023-03-14T06:25:50;99758.25;;;10.17;73.38
34241;BME280;20503;50.200;19.508;2023-03-14T06:30:59;99758.72;;;10.44;72.11
34241;BME280;20503;50.200;19.508;2023-03-14T06:36:05;99765.69;;;10.69;70.86
34241;BME280;20503;50.200;19.508;2023-03-14T06:41:12;99764.69;;;10.93;69.97
34241;BME280;20503;50.200;19.508;2023-03-14T06:46:19;99761.85;;;11.11;68.54
34241;BME280;20503;50.200;19.508;2023-03-14T06:51:27;99760.41;;;11.20;69.32
34241;BME280;20503;50.200;19.508;2023-03-14T06:56:34;99737.68;;;11.31;68.75
34241;BME280;20503;50.200;19.508;2023-03-14T07:01:41;99720.52;;;11.35;68.02
34241;BME280;20503;50.200;19.508;2023-03-14T07:06:49;99729.58;;;11.47;68.17
34241;BME280;20503;50.200;19.508;2023-03-14T07:11:56;99721.85;;;11.56;67.80
34241;BME280;20503;50.200;19.508;2023-03-14T07:17:04;99715.89;;;11.59;67.46
34241;BME280;20503;50.200;19.508;2023-03-14T07:22:11;99713.34;;;11.69;67.11
34241;BME280;20503;50.200;19.508;2023-03-14T07:27:18;99739.55;;;11.76;66.72
34241;BME280;20503;50.200;19.508;2023-03-14T07:32:26;99732.14;;;11.88;66.71
34241;BME280;20503;50.200;19.508;2023-03-14T07:37:35;99719.13;;;12.23;65.33
34241;BME280;20503;50.200;19.508;2023-03-14T07:42:43;99735.52;;;12.63;63.71
34241;BME280;20503;50.200;19.508;2023-03-14T07:47:50;99735.72;;;12.73;63.47
34241;BME280;20503;50.200;19.508;2023-03-14T07:52:57;99767.73;;;12.95;62.99
34241;BME280;20503;50.200;19.508;2023-03-14T07:58:05;99751.49;;;12.94;62.82
34241;BME280;20503;50.200;19.508;2023-03-14T08:03:13;99765.05;;;13.16;62.31
34241;BME280;20503;50.200;19.508;2023-03-14T08:08:20;99751.77;;;13.63;61.03
34241;BME280;20503;50.200;19.508;2023-03-14T08:13:28;99767.91;;;13.97;59.17
34241;BME280;20503;50.200;19.508;2023-03-14T08:18:36;99775.24;;;14.78;56.45
34241;BME280;20503;50.200;19.508;2023-03-14T08:23:44;99761.76;;;14.55;56.75
34241;BME280;20503;50.200;19.508;2023-03-14T08:28:52;99757.87;;;14.08;58.48
34241;BME280;20503;50.200;19.508;2023-03-14T08:34:01;99750.10;;;15.01;56.69
34241;BME280;20503;50.200;19.508;2023-03-14T08:39:08;99737.09;;;14.65;57.11
34241;BME280;20503;50.200;19.508;2023-03-14T08:44:15;99748.66;;;14.93;56.75
34241;BME280;20503;50.200;19.508;2023-03-14T08:49:23;99752.21;;;14.62;57.71
34241;BME280;20503;50.200;19.508;2023-03-14T08:54:31;99778.20;;;14.23;58.91
34241;BME280;20503;50.200;19.508;2023-03-14T08:59:39;99788.69;;;15.01;57.47
34241;BME280;20503;50.200;19.508;2023-03-14T09:04:46;99803.28;;;15.27;56.37
34241;BME280;20503;50.200;19.508;2023-03-14T09:09:55;99805.17;;;14.43;57.88
34241;BME280;20503;50.200;19.508;2023-03-14T09:15:03;99802.41;;;14.43;58.98
34241;BME280;20503;50.200;19.508;2023-03-14T09:20:11;99797.28;;;14.30;58.91
34241;BME280;20503;50.200;19.508;2023-03-14T09:25:18;99812.15;;;14.12;60.24
34241;BME280;20503;50.200;19.508;2023-03-14T09:30:26;99816.09;;;14.38;60.18
34241;BME280;20503;50.200;19.508;2023-03-14T09:35:34;99826.48;;;14.31;59.74
34241;BME280;20503;50.200;19.508;2023-03-14T09:40:42;99815.72;;;13.91;59.85
34241;BME280;20503;50.200;19.508;2023-03-14T09:45:50;99813.76;;;14.08;60.58
34241;BME280;20503;50.200;19.508;2023-03-14T09:50:59;99825.02;;;14.45;59.60
34241;BME280;20503;50.200;19.508;2023-03-14T09:56:17;99824.72;;;14.68;58.31
34241;BME280;20503;50.200;19.508;2023-03-14T10:01:24;99827.30;;;14.31;59.32
34241;BME280;20503;50.200;19.508;2023-03-14T10:06:29;99833.70;;;14.37;59.97
34241;BME280;20503;50.200;19.508;2023-03-14T10:11:31;99831.80;;;14.37;60.17
34241;BME280;20503;50.200;19.508;2023-03-14T10:16:41;99848.10;;;14.65;59.61
34241;BME280;20503;50.200;19.508;2023-03-14T10:21:53;99861.19;;;14.53;59.78
34241;BME280;20503;50.200;19.508;2023-03-14T10:32:06;99872.58;;;14.02;61.53
34241;BME280;20503;50.200;19.508;2023-03-14T10:42:29;99850.57;;;13.86;63.38
34241;BME280;20503;50.200;19.508;2023-03-14T10:47:35;99843.18;;;13.70;63.89
34241;BME280;20503;50.200;19.508;2023-03-14T10:57:49;99833.43;;;13.62;63.98
34241;BME280;20503;50.200;19.508;2023-03-14T11:08:18;99833.95;;;13.59;64.62
34241;BME280;20503;50.200;19.508;2023-03-14T11:39:18;99833.78;;;12.89;68.11
34241;BME280;20503;50.200;19.508;2023-03-14T11:44:23;99822.79;;;12.89;68.62
34241;BME280;20503;50.200;19.508;2023-03-14T12:00:04;99807.86;;;13.13;67.82
34241;BME280;20503;50.200;19.508;2023-03-14T12:10:29;99794.63;;;13.10;68.51
34241;BME280;20503;50.200;19.508;2023-03-14T12:15:40;99786.45;;;13.14;68.03
34241;BME280;20503;50.200;19.508;2023-03-14T12:20:50;99776.56;;;13.30;68.30
34241;BME280;20503;50.200;19.508;2023-03-14T12:41:40;99759.75;;;13.64;67.49
34241;BME280;20503;50.200;19.508;2023-03-14T12:46:45;99762.02;;;13.67;68.16
34241;BME280;20503;50.200;19.508;2023-03-14T12:51:48;99758.71;;;13.49;67.68
34241;BME280;20503;50.200;19.508;2023-03-14T12:56:57;99756.16;;;13.10;69.20
34241;BME280;20503;50.200;19.508;2023-03-14T13:12:54;99755.23;;;13.04;69.85
34241;BME280;20503;50.200;19.508;2023-03-14T13:17:40;99763.76;;;12.91;69.78
34241;BME280;20503;50.200;19.508;2023-03-14T13:22:47;99756.52;;;12.69;70.41
34241;BME280;20503;50.200;19.508;2023-03-14T13:27:52;99768.97;;;12.60;71.06
34241;BME280;20503;50.200;19.508;2023-03-14T13:32:55;99768.39;;;12.58;71.77
34241;BME280;20503;50.200;19.508;2023-03-14T13:38:01;99777.27;;;12.48;72.21
34241;BME280;20503;50.200;19.508;2023-03-14T13:43:14;99773.37;;;12.33;73.31
34241;BME280;20503;50.200;19.508;2023-03-14T13:48:17;99796.09;;;12.17;74.69
34241;BME280;20503;50.200;19.508;2023-03-14T13:53:19;99808.54;;;12.08;75.83
34241;BME280;20503;50.200;19.508;2023-03-14T13:58:31;99803.67;;;11.98;76.39
34241;BME280;20503;50.200;19.508;2023-03-14T14:03:32;99819.07;;;11.88;77.27
34241;BME280;20503;50.200;19.508;2023-03-14T14:08:35;99822.27;;;11.85;78.14
34241;BME280;20503;50.200;19.508;2023-03-14T14:13:36;99821.47;;;11.73;80.42
34241;BME280;20503;50.200;19.508;2023-03-14T14:18:38;99830.41;;;11.68;81.39
34241;BME280;20503;50.200;19.508;2023-03-14T14:23:43;99816.90;;;11.55;83.21
34241;BME280;20503;50.200;19.508;2023-03-14T14:28:46;99824.05;;;11.45;84.80
34241;BME280;20503;50.200;19.508;2023-03-14T14:33:56;99808.42;;;11.34;85.76
34241;BME280;20503;50.200;19.508;2023-03-14T14:39:04;99819.27;;;11.29;87.79
34241;BME280;20503;50.200;19.508;2023-03-14T14:44:06;99811.04;;;11.18;89.79
34241;BME280;20503;50.200;19.508;2023-03-14T14:49:16;99810.30;;;11.11;91.38
34241;BME280;20503;50.200;19.508;2023-03-14T14:59:31;99812.55;;;11.02;92.66
34241;BME280;20503;50.200;19.508;2023-03-14T15:04:35;99813.62;;;11.01;93.27
34241;BME280;20503;50.200;19.508;2023-03-14T15:09:36;99809.09;;;10.95;92.75
34241;BME280;20503;50.200;19.508;2023-03-14T15:14:37;99812.05;;;10.94;92.06
34241;BME280;20503;50.200;19.508;2023-03-14T15:19:39;99799.09;;;10.89;92.09
34241;BME280;20503;50.200;19.508;2023-03-14T15:24:41;99771.56;;;10.84;93.22
34241;BME280;20503;50.200;19.508;2023-03-14T15:29:42;99766.20;;;10.78;94.07
34241;BME280;20503;50.200;19.508;2023-03-14T15:34:45;99774.18;;;10.79;94.76
34241;BME280;20503;50.200;19.508;2023-03-14T15:39:51;99775.13;;;10.73;96.03
34241;BME280;20503;50.200;19.508;2023-03-14T15:44:59;99810.71;;;10.73;96.31
34241;BME280;20503;50.200;19.508;2023-03-14T15:50:09;99823.80;;;10.71;97.17
34241;BME280;20503;50.200;19.508;2023-03-14T15:55:15;99827.91;;;10.62;100.00
34241;BME280;20503;50.200;19.508;2023-03-14T16:00:22;99836.38;;;10.43;100.00
34241;BME280;20503;50.200;19.508;2023-03-14T16:05:30;99840.61;;;10.09;100.00
34241;BME280;20503;50.200;19.508;2023-03-14T16:10:38;99831.31;;;9.74;100.00
34241;BME280;20503;50.200;19.508;2023-03-14T16:21:01;99806.34;;;9.28;100.00
34241;BME280;20503;50.200;19.508;2023-03-14T16:26:09;99786.74;;;9.14;100.00
34241;BME280;20503;50.200;19.508;2023-03-14T16:31:14;99745.09;;;9.00;100.00
34241;BME280;20503;50.200;19.508;2023-03-14T16:36:17;99711.95;;;8.97;100.00
34241;BME280;20503;50.200;19.508;2023-03-14T16:41:23;99749.43;;;9.08;100.00
34241;BME280;20503;50.200;19.508;2023-03-14T16:46:31;99758.73;;;9.00;100.00
34241;BME280;20503;50.200;19.508;2023-03-14T16:51:39;99761.73;;;8.92;100.00
34241;BME280;20503;50.200;19.508;2023-03-14T16:56:46;99783.61;;;8.86;100.00
34241;BME280;20503;50.200;19.508;2023-03-14T17:01:54;99799.62;;;8.82;100.00
34241;BME280;20503;50.200;19.508;2023-03-14T17:07:01;99805.29;;;8.81;100.00
34241;BME280;20503;50.200;19.508;2023-03-14T17:12:09;99793.59;;;8.74;100.00
34241;BME280;20503;50.200;19.508;2023-03-14T17:17:17;99784.39;;;8.68;100.00
34241;BME280;20503;50.200;19.508;2023-03-14T17:22:24;99808.50;;;8.71;100.00
34241;BME280;20503;50.200;19.508;2023-03-14T17:27:32;99818.56;;;8.71;100.00
34241;BME280;20503;50.200;19.508;2023-03-14T17:32:40;99816.11;;;8.63;100.00
34241;BME280;20503;50.200;19.508;2023-03-14T17:37:47;99805.85;;;8.58;100.00
34241;BME280;20503;50.200;19.508;2023-03-14T17:42:58;99804.84;;;8.53;100.00
34241;BME280;20503;50.200;19.508;2023-03-14T17:48:03;99799.82;;;8.50;100.00
34241;BME280;20503;50.200;19.508;2023-03-14T17:53:11;99806.13;;;8.50;100.00
34241;BME280;20503;50.200;19.508;2023-03-14T17:58:20;99823.14;;;8.46;100.00
34241;BME280;20503;50.200;19.508;2023-03-14T18:03:26;99819.66;;;8.32;100.00
34241;BME280;20503;50.200;19.508;2023-03-14T18:08:34;99811.71;;;8.24;100.00
34241;BME280;20503;50.200;19.508;2023-03-14T18:13:42;99817.20;;;8.18;100.00
34241;BME280;20503;50.200;19.508;2023-03-14T18:23:03;99821.20;;;8.09;100.00
34241;BME280;20503;50.200;19.508;2023-03-14T18:28:14;99826.45;;;8.04;100.00
34241;BME280;20503;50.200;19.508;2023-03-14T18:33:24;99823.37;;;7.94;100.00
34241;BME280;20503;50.200;19.508;2023-03-14T18:38:36;99829.42;;;7.96;100.00
34241;BME280;20503;50.200;19.508;2023-03-14T18:43:46;99825.66;;;7.97;100.00
34241;BME280;20503;50.200;19.508;2023-03-14T18:48:58;99840.76;;;7.93;100.00
34241;BME280;20503;50.200;19.508;2023-03-14T18:54:08;99855.43;;;7.92;100.00
34241;BME280;20503;50.200;19.508;2023-03-14T18:59:18;99849.59;;;7.82;100.00
34241;BME280;20503;50.200;19.508;2023-03-14T19:04:28;99865.49;;;7.85;100.00
34241;BME280;20503;50.200;19.508;2023-03-14T19:09:39;99863.63;;;7.85;100.00
34241;BME280;20503;50.200;19.508;2023-03-14T19:14:50;99865.49;;;7.85;100.00
34241;BME280;20503;50.200;19.508;2023-03-14T19:20:01;99871.79;;;7.85;100.00
34241;BME280;20503;50.200;19.508;2023-03-14T19:25:12;99873.48;;;7.80;100.00
34241;BME280;20503;50.200;19.508;2023-03-14T19:30:22;99878.70;;;7.81;100.00
34241;BME280;20503;50.200;19.508;2023-03-14T19:35:33;99890.25;;;7.83;100.00
34241;BME280;20503;50.200;19.508;2023-03-14T19:40:44;99900.27;;;7.89;100.00
34241;BME280;20503;50.200;19.508;2023-03-14T19:45:55;99894.41;;;7.86;100.00
34241;BME280;20503;50.200;19.508;2023-03-14T19:51:05;99890.64;;;7.87;100.00
34241;BME280;20503;50.200;19.508;2023-03-14T19:56:17;99892.10;;;7.89;100.00
34241;BME280;20503;50.200;19.508;2023-03-14T20:01:27;99905.10;;;7.87;100.00
34241;BME280;20503;50.200;19.508;2023-03-14T20:06:38;99888.13;;;7.85;100.00
34241;BME280;20503;50.200;19.508;2023-03-14T20:11:49;99900.48;;;7.81;100.00
34241;BME280;20503;50.200;19.508;2023-03-14T20:16:59;99901.77;;;7.79;100.00
34241;BME280;20503;50.200;19.508;2023-03-14T20:22:10;99903.88;;;7.77;100.00
34241;BME280;20503;50.200;19.508;2023-03-14T20:27:21;99916.02;;;7.81;100.00
34241;BME280;20503;50.200;19.508;2023-03-14T20:32:32;99904.50;;;7.79;100.00
34241;BME280;20503;50.200;19.508;2023-03-14T20:37:42;99908.65;;;7.88;100.00
34241;BME280;20503;50.200;19.508;2023-03-14T20:42:54;99907.84;;;7.81;100.00
34241;BME280;20503;50.200;19.508;2023-03-14T20:48:04;99910.37;;;7.76;100.00
34241;BME280;20503;50.200;19.508;2023-03-14T20:53:15;99898.86;;;7.67;100.00
34241;BME280;20503;50.200;19.508;2023-03-14T20:58:24;99919.60;;;7.68;100.00
34241;BME280;20503;50.200;19.508;2023-03-14T21:03:31;99927.97;;;7.67;100.00
34241;BME280;20503;50.200;19.508;2023-03-14T21:08:39;99934.89;;;7.63;100.00
34241;BME280;20503;50.200;19.508;2023-03-14T21:13:47;99944.53;;;7.52;100.00
34241;BME280;20503;50.200;19.508;2023-03-14T21:18:54;99938.46;;;7.50;100.00
34241;BME280;20503;50.200;19.508;2023-03-14T21:24:04;99953.94;;;7.43;100.00
34241;BME280;20503;50.200;19.508;2023-03-14T21:29:11;99953.12;;;7.43;100.00
34241;BME280;20503;50.200;19.508;2023-03-14T21:34:18;99960.44;;;7.49;100.00
34241;BME280;20503;50.200;19.508;2023-03-14T21:39:28;99954.77;;;7.57;100.00
34241;BME280;20503;50.200;19.508;2023-03-14T21:44:35;99978.45;;;7.56;100.00
34241;BME280;20503;50.200;19.508;2023-03-14T21:49:42;99972.17;;;7.56;100.00
34241;BME280;20503;50.200;19.508;2023-03-14T21:54:50;99976.98;;;7.54;100.00
34241;BME280;20503;50.200;19.508;2023-03-14T21:59:58;99988.73;;;7.61;100.00
34241;BME280;20503;50.200;19.508;2023-03-14T22:05:06;100000.69;;;7.66;100.00
34241;BME280;20503;50.200;19.508;2023-03-14T22:10:14;100005.48;;;7.84;100.00
34241;BME280;20503;50.200;19.508;2023-03-14T22:15:20;100002.95;;;8.08;100.00
34241;BME280;20503;50.200;19.508;2023-03-14T22:20:30;100001.69;;;8.17;100.00
34241;BME280;20503;50.200;19.508;2023-03-14T22:25:41;100000.42;;;8.26;100.00
34241;BME280;20503;50.200;19.508;2023-03-14T22:30:45;100011.51;;;8.38;100.00
34241;BME280;20503;50.200;19.508;2023-03-14T22:35:52;100011.31;;;8.33;100.00
34241;BME280;20503;50.200;19.508;2023-03-14T22:41:01;99998.75;;;8.25;100.00
34241;BME280;20503;50.200;19.508;2023-03-14T22:46:08;100012.56;;;8.37;100.00
34241;BME280;20503;50.200;19.508;2023-03-14T22:51:16;100018.23;;;8.42;100.00
34241;BME280;20503;50.200;19.508;2023-03-14T22:56:23;100033.11;;;8.46;100.00
34241;BME280;20503;50.200;19.508;2023-03-14T23:01:30;100045.05;;;8.58;100.00
34241;BME280;20503;50.200;19.508;2023-03-14T23:06:38;100064.95;;;8.65;100.00
34241;BME280;20503;50.200;19.508;2023-03-14T23:11:46;100092.23;;;8.65;100.00
34241;BME280;20503;50.200;19.508;2023-03-14T23:16:53;100102.73;;;8.55;100.00
34241;BME280;20503;50.200;19.508;2023-03-14T23:22:01;100141.92;;;8.02;100.00
34241;BME280;20503;50.200;19.508;2023-03-14T23:27:08;100149.96;;;7.43;100.00
34241;BME280;20503;50.200;19.508;2023-03-14T23:32:16;100152.18;;;7.21;100.00
34241;BME280;20503;50.200;19.508;2023-03-14T23:37:24;100174.23;;;6.98;100.00
34241;BME280;20503;50.200;19.508;2023-03-14T23:42:32;100174.80;;;6.87;100.00
34241;BME280;20503;50.200;19.508;2023-03-14T23:47:39;100205.95;;;6.57;100.00
34241;BME280;20503;50.200;19.508;2023-03-14T23:52:47;100225.41;;;6.33;100.00
34241;BME280;20503;50.200;19.508;2023-03-14T23:57:56;100239.33;;;6.24;100.00
